DHK054 EGNX-EBBR
Flight info
| Callsign | DHK054 |
|---|---|
| Flight time | 0h 52m |
| Altitude | 27000 |
| Route | SAPCO UY53 DTY UM605 BENSU Q70 KOK |
| Aircraft | B77L/H-SDE2E3GHIJ1J2J3J4J5M1P2RWXYZ/LB1D1 |
Departure
| Time | 2026-05-07 18:44 |
|---|---|
| Airport | East Midlands Airport (EGNX) |
Arrival
| Time | 2026-05-07 19:36 |
|---|---|
| Airport | Brussels Airport (EBBR) |
| Time | Latitude | Longitude | Altitude | Speed | Heading |
|---|---|---|---|---|---|
| 2026-05-07 18:19 | 52.82751 | -1.34867 | 305 ft | 0 kts | 178° |
| 2026-05-07 18:36 | 52.82759 | -1.34868 | 305 ft | 4 kts | 178° |
| 2026-05-07 18:36 | 52.82784 | -1.34870 | 305 ft | 1 kts | 178° |
| 2026-05-07 18:36 | 52.82807 | -1.34874 | 305 ft | 4 kts | 159° |
| 2026-05-07 18:37 | 52.82825 | -1.34896 | 304 ft | 4 kts | 99° |
| 2026-05-07 18:37 | 52.82825 | -1.34937 | 303 ft | 4 kts | 88° |
| 2026-05-07 18:37 | 52.82824 | -1.34975 | 303 ft | 1 kts | 88° |
| 2026-05-07 18:39 | 52.82824 | -1.34974 | 305 ft | 0 kts | 88° |
| 2026-05-07 18:39 | 52.82824 | -1.34970 | 305 ft | 2 kts | 88° |
| 2026-05-07 18:40 | 52.82826 | -1.34855 | 306 ft | 13 kts | 88° |
| 2026-05-07 18:40 | 52.82829 | -1.34710 | 305 ft | 13 kts | 88° |
| 2026-05-07 18:40 | 52.82832 | -1.34593 | 308 ft | 10 kts | 88° |
| 2026-05-07 18:40 | 52.82835 | -1.34484 | 308 ft | 9 kts | 81° |
| 2026-05-07 18:41 | 52.82873 | -1.34420 | 311 ft | 7 kts | 11° |
| 2026-05-07 18:41 | 52.82903 | -1.34458 | 312 ft | 6 kts | 299° |
| 2026-05-07 18:41 | 52.82906 | -1.34537 | 308 ft | 8 kts | 266° |
| 2026-05-07 18:41 | 52.82904 | -1.34637 | 311 ft | 9 kts | 267° |
| 2026-05-07 18:42 | 52.82902 | -1.34754 | 309 ft | 12 kts | 268° |
| 2026-05-07 18:42 | 52.82905 | -1.34898 | 313 ft | 6 kts | 295° |
| 2026-05-07 18:42 | 52.82958 | -1.34931 | 310 ft | 12 kts | 354° |
| 2026-05-07 18:42 | 52.83043 | -1.34925 | 311 ft | 9 kts | 27° |
| 2026-05-07 18:43 | 52.83063 | -1.34831 | 308 ft | 10 kts | 87° |
| 2026-05-07 18:43 | 52.83069 | -1.34520 | 306 ft | 52 kts | 88° |
| 2026-05-07 18:43 | 52.83086 | -1.33512 | 313 ft | 120 kts | 88° |
| 2026-05-07 18:43 | 52.83117 | -1.31804 | 352 ft | 169 kts | 88° |
| 2026-05-07 18:44 | 52.83142 | -1.29862 | 936 ft | 166 kts | 93° |
| 2026-05-07 18:44 | 52.83057 | -1.27951 | 1600 ft | 169 kts | 99° |
| 2026-05-07 18:44 | 52.82924 | -1.25974 | 2131 ft | 179 kts | 99° |
| 2026-05-07 18:44 | 52.82620 | -1.23859 | 2381 ft | 201 kts | 116° |
| 2026-05-07 18:45 | 52.81828 | -1.21817 | 2629 ft | 224 kts | 132° |
| 2026-05-07 18:45 | 52.80738 | -1.19857 | 3172 ft | 237 kts | 135° |
| 2026-05-07 18:45 | 52.79562 | -1.17838 | 3811 ft | 249 kts | 135° |
| 2026-05-07 18:45 | 52.78331 | -1.15767 | 4543 ft | 254 kts | 140° |
| 2026-05-07 18:46 | 52.76749 | -1.14472 | 5133 ft | 262 kts | 174° |
| 2026-05-07 18:46 | 52.74988 | -1.15016 | 5967 ft | 262 kts | 211° |
| 2026-05-07 18:46 | 52.73601 | -1.16942 | 6697 ft | 263 kts | 225° |
| 2026-05-07 18:46 | 52.72238 | -1.19009 | 7382 ft | 268 kts | 221° |
| 2026-05-07 18:47 | 52.70807 | -1.20983 | 8256 ft | 269 kts | 219° |
| 2026-05-07 18:47 | 52.69349 | -1.22920 | 9110 ft | 270 kts | 219° |
| 2026-05-07 18:47 | 52.67875 | -1.24859 | 9949 ft | 273 kts | 219° |
| 2026-05-07 18:47 | 52.66369 | -1.26829 | 10529 ft | 284 kts | 219° |
| 2026-05-07 18:48 | 52.64746 | -1.28941 | 10730 ft | 310 kts | 218° |
| 2026-05-07 18:48 | 52.62982 | -1.31231 | 10944 ft | 336 kts | 218° |
| 2026-05-07 18:48 | 52.61089 | -1.33684 | 11375 ft | 354 kts | 218° |
| 2026-05-07 18:48 | 52.59059 | -1.36019 | 11908 ft | 361 kts | 205° |
| 2026-05-07 18:49 | 52.56590 | -1.36873 | 12712 ft | 370 kts | 178° |
| 2026-05-07 18:49 | 52.54089 | -1.35908 | 13740 ft | 371 kts | 159° |
| 2026-05-07 18:49 | 52.51694 | -1.34238 | 14415 ft | 379 kts | 159° |
| 2026-05-07 18:49 | 52.49242 | -1.32539 | 15153 ft | 386 kts | 159° |
| 2026-05-07 18:50 | 52.46749 | -1.30819 | 15980 ft | 391 kts | 159° |
| 2026-05-07 18:50 | 52.44229 | -1.29093 | 16805 ft | 395 kts | 159° |
| 2026-05-07 18:50 | 52.41671 | -1.27349 | 17630 ft | 401 kts | 159° |
| 2026-05-07 18:50 | 52.39074 | -1.25586 | 18387 ft | 407 kts | 159° |
| 2026-05-07 18:51 | 52.36439 | -1.23803 | 19054 ft | 412 kts | 159° |
| 2026-05-07 18:51 | 52.33773 | -1.22002 | 19761 ft | 416 kts | 159° |
| 2026-05-07 18:51 | 52.31083 | -1.20188 | 20471 ft | 420 kts | 159° |
| 2026-05-07 18:51 | 52.28366 | -1.18359 | 21166 ft | 425 kts | 160° |
| 2026-05-07 18:52 | 52.25621 | -1.16513 | 21816 ft | 429 kts | 160° |
| 2026-05-07 18:52 | 52.22843 | -1.14648 | 22460 ft | 434 kts | 160° |
| 2026-05-07 18:52 | 52.20034 | -1.12769 | 23122 ft | 438 kts | 160° |
| 2026-05-07 18:52 | 52.17185 | -1.11142 | 23730 ft | 441 kts | 166° |
| 2026-05-07 18:53 | 52.14190 | -1.10024 | 24281 ft | 443 kts | 172° |
| 2026-05-07 18:53 | 52.11146 | -1.09103 | 24844 ft | 446 kts | 172° |
| 2026-05-07 18:53 | 52.08084 | -1.08152 | 25390 ft | 450 kts | 171° |
| 2026-05-07 18:53 | 52.05002 | -1.07165 | 25940 ft | 453 kts | 171° |
| 2026-05-07 18:54 | 52.01915 | -1.06160 | 26629 ft | 452 kts | 171° |
| 2026-05-07 18:54 | 51.98821 | -1.05149 | 27060 ft | 455 kts | 171° |
| 2026-05-07 18:54 | 51.95723 | -1.04125 | 27010 ft | 453 kts | 171° |
| 2026-05-07 18:54 | 51.92643 | -1.03099 | 27004 ft | 450 kts | 171° |
| 2026-05-07 18:55 | 51.89588 | -1.02082 | 27028 ft | 448 kts | 171° |
| 2026-05-07 18:55 | 51.86531 | -1.01071 | 27033 ft | 449 kts | 171° |
| 2026-05-07 18:55 | 51.83468 | -1.00064 | 27027 ft | 450 kts | 171° |
| 2026-05-07 18:55 | 51.80403 | -0.99077 | 27011 ft | 450 kts | 171° |
| 2026-05-07 18:56 | 51.77326 | -0.98095 | 27016 ft | 450 kts | 171° |
| 2026-05-07 18:56 | 51.74256 | -0.97116 | 27026 ft | 450 kts | 171° |
| 2026-05-07 18:56 | 51.71187 | -0.96136 | 27017 ft | 450 kts | 171° |
| 2026-05-07 18:56 | 51.68117 | -0.95156 | 27021 ft | 450 kts | 171° |
| 2026-05-07 18:57 | 51.65050 | -0.94177 | 27024 ft | 450 kts | 171° |
| 2026-05-07 18:57 | 51.62010 | -0.93080 | 27027 ft | 448 kts | 164° |
| 2026-05-07 18:57 | 51.59216 | -0.90809 | 27054 ft | 455 kts | 145° |
| 2026-05-07 18:57 | 51.56954 | -0.87230 | 27047 ft | 461 kts | 129° |
| 2026-05-07 18:58 | 51.55354 | -0.82762 | 27031 ft | 463 kts | 114° |
| 2026-05-07 18:58 | 51.54167 | -0.77943 | 27051 ft | 465 kts | 113° |
| 2026-05-07 18:58 | 51.52988 | -0.73101 | 27049 ft | 466 kts | 113° |
| 2026-05-07 18:58 | 51.51794 | -0.68255 | 27051 ft | 467 kts | 114° |
| 2026-05-07 18:59 | 51.50577 | -0.63405 | 27052 ft | 468 kts | 114° |
| 2026-05-07 18:59 | 51.49345 | -0.58565 | 27051 ft | 469 kts | 114° |
| 2026-05-07 18:59 | 51.48101 | -0.53732 | 27049 ft | 469 kts | 114° |
| 2026-05-07 18:59 | 51.46849 | -0.48898 | 27048 ft | 469 kts | 114° |
| 2026-05-07 19:00 | 51.45595 | -0.44074 | 27046 ft | 470 kts | 115° |
| 2026-05-07 19:00 | 51.44326 | -0.39205 | 27060 ft | 477 kts | 115° |
| 2026-05-07 19:00 | 51.43039 | -0.34277 | 27058 ft | 481 kts | 115° |
| 2026-05-07 19:00 | 51.41749 | -0.29343 | 27048 ft | 480 kts | 115° |
| 2026-05-07 19:01 | 51.40460 | -0.24415 | 27047 ft | 479 kts | 115° |
| 2026-05-07 19:01 | 51.39173 | -0.19509 | 27047 ft | 477 kts | 115° |
| 2026-05-07 19:01 | 51.37886 | -0.14610 | 27052 ft | 479 kts | 115° |
| 2026-05-07 19:01 | 51.36577 | -0.09645 | 27066 ft | 489 kts | 115° |
| 2026-05-07 19:02 | 51.35247 | -0.04608 | 27065 ft | 494 kts | 114° |
| 2026-05-07 19:02 | 51.34056 | 0.00559 | 27062 ft | 495 kts | 108° |
| 2026-05-07 19:02 | 51.33207 | 0.05895 | 27065 ft | 496 kts | 103° |
| 2026-05-07 19:02 | 51.32643 | 0.11336 | 26953 ft | 496 kts | 97° |
| 2026-05-07 19:03 | 51.32383 | 0.16828 | 26935 ft | 496 kts | 95° |
| 2026-05-07 19:03 | 51.32164 | 0.22339 | 26914 ft | 496 kts | 95° |
| 2026-05-07 19:03 | 51.31935 | 0.27838 | 26898 ft | 496 kts | 95° |
| 2026-05-07 19:03 | 51.31691 | 0.33335 | 26884 ft | 496 kts | 95° |
| 2026-05-07 19:04 | 51.31432 | 0.38830 | 26873 ft | 496 kts | 96° |
| 2026-05-07 19:04 | 51.31163 | 0.44324 | 26868 ft | 496 kts | 96° |
| 2026-05-07 19:04 | 51.30895 | 0.49748 | 26867 ft | 496 kts | 96° |
| 2026-05-07 19:04 | 51.30619 | 0.55313 | 26890 ft | 496 kts | 96° |
| 2026-05-07 19:05 | 51.30350 | 0.60744 | 26898 ft | 497 kts | 95° |
| 2026-05-07 19:05 | 51.30121 | 0.66243 | 26917 ft | 497 kts | 95° |
| 2026-05-07 19:05 | 51.29927 | 0.71774 | 26949 ft | 497 kts | 94° |
| 2026-05-07 19:05 | 51.29743 | 0.77289 | 26968 ft | 498 kts | 94° |
| 2026-05-07 19:06 | 51.29553 | 0.82806 | 26998 ft | 498 kts | 94° |
| 2026-05-07 19:06 | 51.29145 | 0.93853 | 27070 ft | 498 kts | 95° |
| 2026-05-07 19:06 | 51.28933 | 0.99363 | 27070 ft | 498 kts | 94° |
| 2026-05-07 19:07 | 51.28717 | 1.04890 | 27070 ft | 498 kts | 95° |
| 2026-05-07 19:07 | 51.28497 | 1.10418 | 27067 ft | 499 kts | 95° |
| 2026-05-07 19:07 | 51.28273 | 1.15949 | 27069 ft | 499 kts | 95° |
| 2026-05-07 19:07 | 51.28046 | 1.21502 | 27067 ft | 499 kts | 95° |
| 2026-05-07 19:08 | 51.27819 | 1.27001 | 27068 ft | 499 kts | 95° |
| 2026-05-07 19:08 | 51.27588 | 1.32529 | 27064 ft | 496 kts | 95° |
| 2026-05-07 19:08 | 51.27363 | 1.37909 | 27046 ft | 477 kts | 95° |
| 2026-05-07 19:08 | 51.27143 | 1.43105 | 27040 ft | 459 kts | 95° |
| 2026-05-07 19:09 | 51.26929 | 1.48098 | 27057 ft | 447 kts | 95° |
| 2026-05-07 19:09 | 51.26710 | 1.53113 | 27071 ft | 450 kts | 95° |
| 2026-05-07 19:09 | 51.26495 | 1.58049 | 27064 ft | 448 kts | 95° |
| 2026-05-07 19:09 | 51.26279 | 1.63000 | 27061 ft | 446 kts | 95° |
| 2026-05-07 19:10 | 51.26062 | 1.67922 | 27061 ft | 444 kts | 95° |
| 2026-05-07 19:10 | 51.25915 | 1.71247 | 27063 ft | 443 kts | 95° |
| 2026-05-07 19:10 | 51.25696 | 1.76147 | 27064 ft | 442 kts | 95° |
| 2026-05-07 19:10 | 51.25475 | 1.81040 | 27068 ft | 442 kts | 95° |
| 2026-05-07 19:11 | 51.25252 | 1.85925 | 27072 ft | 442 kts | 95° |
| 2026-05-07 19:11 | 51.25028 | 1.90810 | 26941 ft | 441 kts | 95° |
| 2026-05-07 19:11 | 51.24802 | 1.95703 | 26681 ft | 443 kts | 95° |
| 2026-05-07 19:11 | 51.24563 | 2.00606 | 26453 ft | 443 kts | 96° |
| 2026-05-07 19:12 | 51.24074 | 2.05449 | 26282 ft | 441 kts | 105° |
| 2026-05-07 19:12 | 51.23324 | 2.10182 | 26157 ft | 439 kts | 105° |
| 2026-05-07 19:12 | 51.22573 | 2.14887 | 26040 ft | 437 kts | 105° |
| 2026-05-07 19:12 | 51.21837 | 2.19580 | 25884 ft | 436 kts | 105° |
| 2026-05-07 19:13 | 51.21110 | 2.24291 | 25736 ft | 436 kts | 105° |
| 2026-05-07 19:13 | 51.20390 | 2.28976 | 25590 ft | 435 kts | 105° |
| 2026-05-07 19:13 | 51.19670 | 2.33656 | 25450 ft | 434 kts | 105° |
| 2026-05-07 19:13 | 51.18949 | 2.38321 | 25314 ft | 433 kts | 105° |
| 2026-05-07 19:14 | 51.18227 | 2.42972 | 25164 ft | 432 kts | 105° |
| 2026-05-07 19:14 | 51.17503 | 2.47617 | 25026 ft | 431 kts | 105° |
| 2026-05-07 19:14 | 51.16779 | 2.52248 | 24891 ft | 431 kts | 105° |
| 2026-05-07 19:14 | 51.16053 | 2.56873 | 24759 ft | 430 kts | 105° |
| 2026-05-07 19:15 | 51.15328 | 2.61479 | 24641 ft | 429 kts | 105° |
| 2026-05-07 19:15 | 51.14601 | 2.66080 | 24501 ft | 428 kts | 105° |
| 2026-05-07 19:15 | 51.13875 | 2.70670 | 24369 ft | 427 kts | 105° |
| 2026-05-07 19:15 | 51.13149 | 2.75242 | 24249 ft | 426 kts | 105° |
| 2026-05-07 19:16 | 51.12422 | 2.79807 | 24111 ft | 425 kts | 105° |
| 2026-05-07 19:16 | 51.11695 | 2.84364 | 23996 ft | 424 kts | 105° |
| 2026-05-07 19:16 | 51.10967 | 2.88913 | 23870 ft | 423 kts | 105° |
| 2026-05-07 19:16 | 51.10240 | 2.93439 | 23763 ft | 422 kts | 105° |
| 2026-05-07 19:17 | 51.09522 | 2.97900 | 23647 ft | 422 kts | 105° |
| 2026-05-07 19:17 | 51.08784 | 3.02473 | 23491 ft | 421 kts | 105° |
| 2026-05-07 19:17 | 51.08065 | 3.06917 | 23372 ft | 420 kts | 105° |
| 2026-05-07 19:17 | 51.07338 | 3.11402 | 23257 ft | 419 kts | 105° |
| 2026-05-07 19:18 | 51.06611 | 3.15871 | 23098 ft | 413 kts | 106° |
| 2026-05-07 19:18 | 51.05897 | 3.20251 | 22596 ft | 407 kts | 106° |
| 2026-05-07 19:18 | 51.05178 | 3.24649 | 22201 ft | 414 kts | 106° |
| 2026-05-07 19:18 | 51.04451 | 3.29076 | 22062 ft | 413 kts | 106° |
| 2026-05-07 19:19 | 51.03727 | 3.33481 | 22018 ft | 410 kts | 106° |
| 2026-05-07 19:19 | 51.03008 | 3.37847 | 21946 ft | 408 kts | 106° |
| 2026-05-07 19:19 | 51.02287 | 3.42212 | 21832 ft | 408 kts | 106° |
| 2026-05-07 19:19 | 51.01575 | 3.46512 | 21485 ft | 401 kts | 106° |
| 2026-05-07 19:20 | 51.00874 | 3.50736 | 20919 ft | 389 kts | 106° |
| 2026-05-07 19:20 | 51.00193 | 3.54837 | 19980 ft | 380 kts | 106° |
| 2026-05-07 19:20 | 50.99519 | 3.58867 | 18924 ft | 376 kts | 106° |
| 2026-05-07 19:20 | 50.98846 | 3.62865 | 17729 ft | 374 kts | 106° |
| 2026-05-07 19:21 | 50.98173 | 3.66836 | 16497 ft | 370 kts | 106° |
| 2026-05-07 19:21 | 50.97508 | 3.70758 | 15386 ft | 365 kts | 106° |
| 2026-05-07 19:21 | 50.96854 | 3.74613 | 14350 ft | 358 kts | 106° |
| 2026-05-07 19:21 | 50.96213 | 3.78395 | 13275 ft | 352 kts | 106° |
| 2026-05-07 19:22 | 50.95576 | 3.82148 | 12330 ft | 342 kts | 106° |
| 2026-05-07 19:22 | 50.94983 | 3.85635 | 11778 ft | 323 kts | 106° |
| 2026-05-07 19:22 | 50.94411 | 3.88982 | 11224 ft | 307 kts | 106° |
| 2026-05-07 19:22 | 50.93863 | 3.92184 | 10611 ft | 296 kts | 106° |
| 2026-05-07 19:23 | 50.93523 | 3.95347 | 9870 ft | 290 kts | 88° |
| 2026-05-07 19:23 | 50.93868 | 3.98478 | 9053 ft | 292 kts | 75° |
| 2026-05-07 19:23 | 50.94451 | 4.01562 | 8695 ft | 289 kts | 73° |
| 2026-05-07 19:23 | 50.95058 | 4.04569 | 8395 ft | 284 kts | 72° |
| 2026-05-07 19:24 | 50.95662 | 4.07526 | 8148 ft | 278 kts | 72° |
| 2026-05-07 19:24 | 50.96254 | 4.10410 | 8099 ft | 274 kts | 72° |
| 2026-05-07 19:24 | 50.96852 | 4.13306 | 8096 ft | 279 kts | 72° |
| 2026-05-07 19:24 | 50.97463 | 4.16262 | 8095 ft | 284 kts | 72° |
| 2026-05-07 19:25 | 50.98079 | 4.19247 | 8078 ft | 284 kts | 72° |
| 2026-05-07 19:25 | 50.98694 | 4.22219 | 8069 ft | 283 kts | 72° |
| 2026-05-07 19:25 | 50.99305 | 4.25175 | 8069 ft | 281 kts | 72° |
| 2026-05-07 19:25 | 50.99913 | 4.28117 | 8069 ft | 280 kts | 72° |
| 2026-05-07 19:26 | 51.00518 | 4.31047 | 8071 ft | 279 kts | 72° |
| 2026-05-07 19:26 | 51.01123 | 4.33976 | 8074 ft | 279 kts | 72° |
| 2026-05-07 19:26 | 51.01727 | 4.36903 | 8080 ft | 279 kts | 72° |
| 2026-05-07 19:26 | 51.02334 | 4.39844 | 8081 ft | 280 kts | 72° |
| 2026-05-07 19:27 | 51.02941 | 4.42788 | 8087 ft | 281 kts | 72° |
| 2026-05-07 19:27 | 51.03551 | 4.45748 | 8080 ft | 282 kts | 72° |
| 2026-05-07 19:27 | 51.04163 | 4.48718 | 8081 ft | 283 kts | 72° |
| 2026-05-07 19:27 | 51.04774 | 4.51690 | 8055 ft | 282 kts | 72° |
| 2026-05-07 19:28 | 51.05384 | 4.54651 | 7830 ft | 281 kts | 72° |
| 2026-05-07 19:28 | 51.05987 | 4.57585 | 7494 ft | 276 kts | 72° |
| 2026-05-07 19:28 | 51.06575 | 4.60435 | 6863 ft | 271 kts | 72° |
| 2026-05-07 19:28 | 51.07162 | 4.63276 | 6172 ft | 271 kts | 72° |
| 2026-05-07 19:29 | 51.07754 | 4.66137 | 5748 ft | 271 kts | 72° |
| 2026-05-07 19:29 | 51.08338 | 4.68958 | 5450 ft | 266 kts | 72° |
| 2026-05-07 19:29 | 51.08890 | 4.71730 | 5089 ft | 259 kts | 77° |
| 2026-05-07 19:29 | 51.08885 | 4.74528 | 4759 ft | 251 kts | 107° |
| 2026-05-07 19:30 | 51.08018 | 4.76827 | 4578 ft | 241 kts | 137° |
| 2026-05-07 19:30 | 51.06659 | 4.78288 | 4292 ft | 233 kts | 150° |
| 2026-05-07 19:30 | 51.05271 | 4.79446 | 4082 ft | 223 kts | 152° |
| 2026-05-07 19:30 | 51.03911 | 4.80436 | 3911 ft | 208 kts | 165° |
| 2026-05-07 19:31 | 51.02525 | 4.80348 | 3642 ft | 198 kts | 202° |
| 2026-05-07 19:31 | 51.01424 | 4.79136 | 3295 ft | 192 kts | 220° |
| 2026-05-07 19:31 | 51.00445 | 4.77708 | 2944 ft | 190 kts | 222° |
| 2026-05-07 19:31 | 50.99479 | 4.76283 | 2578 ft | 189 kts | 222° |
| 2026-05-07 19:32 | 50.98535 | 4.74846 | 2213 ft | 187 kts | 229° |
| 2026-05-07 19:32 | 50.97873 | 4.73061 | 2044 ft | 193 kts | 243° |
| 2026-05-07 19:32 | 50.97267 | 4.71105 | 2027 ft | 195 kts | 244° |
| 2026-05-07 19:32 | 50.96700 | 4.69185 | 1996 ft | 189 kts | 245° |
| 2026-05-07 19:33 | 50.96166 | 4.67337 | 1989 ft | 186 kts | 245° |
| 2026-05-07 19:33 | 50.95631 | 4.65479 | 1992 ft | 185 kts | 245° |
| 2026-05-07 19:33 | 50.95100 | 4.63633 | 1995 ft | 184 kts | 245° |
| 2026-05-07 19:33 | 50.94555 | 4.61739 | 1756 ft | 192 kts | 245° |
| 2026-05-07 19:34 | 50.94003 | 4.59822 | 1489 ft | 190 kts | 245° |
| 2026-05-07 19:34 | 50.93462 | 4.57942 | 1229 ft | 185 kts | 245° |
| 2026-05-07 19:34 | 50.92948 | 4.56158 | 998 ft | 170 kts | 245° |
| 2026-05-07 19:34 | 50.92475 | 4.54517 | 753 ft | 156 kts | 246° |
| 2026-05-07 19:35 | 50.92034 | 4.52986 | 574 ft | 151 kts | 246° |
| 2026-05-07 19:35 | 50.91607 | 4.51502 | 331 ft | 147 kts | 246° |
| 2026-05-07 19:35 | 50.91183 | 4.50028 | 161 ft | 146 kts | 246° |
| 2026-05-07 19:35 | 50.90786 | 4.48663 | 120 ft | 120 kts | 245° |
| 2026-05-07 19:36 | 50.90501 | 4.47677 | 124 ft | 77 kts | 245° |
| 2026-05-07 19:36 | 50.90341 | 4.47124 | 127 ft | 38 kts | 245° |
| 2026-05-07 19:36 | 50.90276 | 4.46835 | 131 ft | 15 kts | 268° |
| 2026-05-07 19:36 | 50.90315 | 4.46654 | 125 ft | 22 kts | 295° |
| 2026-05-07 19:37 | 50.90357 | 4.46478 | 134 ft | 15 kts | 277° |
| 2026-05-07 19:37 | 50.90342 | 4.46337 | 137 ft | 7 kts | 249° |
| 2026-05-07 19:37 | 50.90336 | 4.46313 | 137 ft | 1 kts | 245° |
| 2026-05-07 19:37 | 50.90333 | 4.46304 | 138 ft | 1 kts | 243° |
| 2026-05-07 19:38 | 50.90329 | 4.46291 | 138 ft | 4 kts | 245° |
| 2026-05-07 19:38 | 50.90319 | 4.46255 | 138 ft | 1 kts | 247° |
| 2026-05-07 19:38 | 50.90311 | 4.46226 | 138 ft | 5 kts | 246° |
| 2026-05-07 19:38 | 50.90298 | 4.46180 | 139 ft | 5 kts | 246° |
| 2026-05-07 19:39 | 50.90290 | 4.46133 | 140 ft | 4 kts | 280° |
| 2026-05-07 19:39 | 50.90318 | 4.46109 | 140 ft | 5 kts | 335° |
| 2026-05-07 19:39 | 50.90348 | 4.46087 | 140 ft | 4 kts | 335° |
| 2026-05-07 19:39 | 50.90371 | 4.46071 | 140 ft | 2 kts | 335° |